Time;durP1;ratioP1;P1;durP2;ratioP2;P2;SDS_P1;SDS_P2;PMS_P1;PMS_P2;Temp;Humidity;BMP_temperature;BMP_pressure;BME280_temperature;BME280_humidity;BME280_pressure;Samples;Min_cycle;Max_cycle;Signal;HPM_P1;HPM_P2
2023/10/13 00:04:22;;;;;;;4.00;1.90;;;;;;;0.53;83.87;101215.44;10360247;28;20050;-81
2023/10/13 00:09:25;;;;;;;5.03;2.05;;;;;;;0.58;83.79;101223.03;10372925;28;20296;-81
2023/10/13 00:14:35;;;;;;;5.82;2.08;;;;;;;0.65;84.47;101237.47;10373004;28;20502;-81
2023/10/13 00:19:38;;;;;;;3.67;1.77;;;;;;;0.59;84.50;101235.19;10373163;28;20046;-82
2023/10/13 00:24:47;;;;;;;3.15;1.88;;;;;;;0.56;84.88;101212.66;10373460;28;20559;-82
2023/10/13 00:29:50;;;;;;;4.10;2.33;;;;;;;0.59;84.55;101224.72;10372463;28;20036;-81
2023/10/13 00:34:56;;;;;;;3.60;1.90;;;;;;;0.28;84.13;101179.31;10371858;28;20046;-82
2023/10/13 00:39:58;;;;;;;5.13;2.55;;;;;;;0.43;83.94;101194.16;10373039;28;20034;-81
2023/10/13 00:45:00;;;;;;;4.47;1.92;;;;;;;0.16;83.82;101165.13;10372643;28;20183;-81
2023/10/13 00:50:01;;;;;;;9.55;2.53;;;;;;;0.51;83.95;101221.66;10372190;28;20065;-81
2023/10/13 00:55:04;;;;;;;3.72;2.20;;;;;;;0.44;83.51;101216.75;10371920;28;20096;-80
2023/10/13 01:00:18;;;;;;;3.72;2.25;;;;;;;0.43;83.96;101215.09;10372549;28;20095;-81
2023/10/13 01:05:19;;;;;;;6.88;2.80;;;;;;;0.35;84.28;101216.41;10371653;28;20042;-80
2023/10/13 01:10:26;;;;;;;4.55;2.70;;;;;;;0.18;84.15;101202.47;10375182;28;20116;-81
2023/10/13 01:15:29;;;;;;;5.50;2.20;;;;;;;0.15;83.92;101204.38;10381305;28;20038;-80
2023/10/13 01:20:30;;;;;;;4.43;2.40;;;;;;;0.10;83.92;101199.41;10380330;28;20041;-80
2023/10/13 01:25:31;;;;;;;4.07;2.10;;;;;;;0.02;83.27;101208.56;10380340;28;20053;-81
2023/10/13 01:30:31;;;;;;;7.65;2.83;;;;;;;0.12;83.81;101220.22;10379346;28;20037;-81
2023/10/13 01:35:36;;;;;;;7.00;2.80;;;;;;;-0.07;84.29;101194.22;10379559;28;20042;-81
2023/10/13 01:40:37;;;;;;;9.10;3.05;;;;;;;0.09;83.87;101216.03;10379738;28;20516;-81
2023/10/13 01:45:49;;;;;;;6.00;2.80;;;;;;;-0.01;84.83;101197.34;10379874;28;20053;-81
2023/10/13 01:50:59;;;;;;;5.25;2.38;;;;;;;0.06;84.71;101207.47;10378494;28;20037;-82
2023/10/13 01:56:05;;;;;;;8.82;2.78;;;;;;;0.09;84.09;101205.56;10379508;28;20061;-81
2023/10/13 02:01:07;;;;;;;10.68;2.83;;;;;;;-0.02;84.50;101187.84;10378293;28;20069;-82
2023/10/13 02:06:10;;;;;;;13.27;3.33;;;;;;;-0.21;83.60;101181.00;10378674;28;20046;-81
2023/10/13 02:11:11;;;;;;;6.10;2.55;;;;;;;-0.32;83.54;101184.19;10356612;28;20444;-81
2023/10/13 02:16:13;;;;;;;8.27;3.00;;;;;;;-0.32;83.63;101194.63;10377141;28;20046;-83
2023/10/13 02:21:14;;;;;;;11.00;3.05;;;;;;;-0.37;84.01;101197.44;10336651;28;20095;-82
2023/10/13 02:26:16;;;;;;;13.82;3.17;;;;;;;-0.43;83.73;101194.31;10340632;28;20081;-82
2023/10/13 02:31:19;;;;;;;10.25;3.13;;;;;;;-0.77;83.98;101141.19;10377292;28;20030;-83
2023/10/13 02:36:35;;;;;;;19.33;3.17;;;;;;;-0.81;83.54;101140.47;10376796;28;20038;-82
2023/10/13 02:41:39;;;;;;;10.07;3.10;;;;;;;-0.70;83.71;101153.00;10367939;28;20052;-82
2023/10/13 02:46:40;;;;;;;21.10;3.25;;;;;;;-0.59;83.15;101174.19;10336585;28;20498;-82
2023/10/13 02:51:44;;;;;;;27.13;3.28;;;;;;;-1.02;82.81;101121.50;10349742;28;20065;-85
2023/10/13 02:56:59;;;;;;;15.83;3.27;;;;;;;-0.81;83.65;101139.63;10365464;28;20050;-81
2023/10/13 03:02:25;;;;;;;48.20;4.55;;;;;;;-0.78;83.84;101152.53;10375912;28;20046;-83
2023/10/13 03:07:29;;;;;;;11.13;3.00;;;;;;;-0.81;83.02;101170.94;10376377;28;20037;-84
2023/10/13 03:12:33;;;;;;;26.60;3.22;;;;;;;-0.86;83.58;101170.34;10372996;28;20093;-82
2023/10/13 03:17:34;;;;;;;11.02;2.40;;;;;;;-0.94;83.33;101171.53;10374602;28;20041;-78
2023/10/13 03:22:34;;;;;;;29.23;3.05;;;;;;;-0.98;83.23;101167.41;10362412;28;20046;-78
2023/10/13 03:28:20;;;;;;;42.55;4.57;;;;;;;-0.94;83.18;101168.09;10390679;28;20121;-78
2023/10/13 03:33:00;;;;;;;18.75;2.97;;;;;;;-1.28;83.52;101093.28;10372825;28;20531;-73
2023/10/13 03:38:01;;;;;;;24.85;3.63;;;;;;;-1.20;83.23;101107.63;10374376;28;20049;-74
2023/10/13 03:43:11;;;;;;;20.02;3.20;;;;;;;-0.83;83.48;101146.72;10374857;28;20533;-86
2023/10/13 03:53:33;;;;;;;11.45;3.75;;;;;;;-0.27;83.70;101129.94;10374370;28;20058;-80
2023/10/13 03:58:38;;;;;;;26.95;4.57;;;;;;;0.18;83.94;101170.25;10374321;28;20120;-84
2023/10/13 04:03:56;;;;;;;17.10;3.42;;;;;;;0.19;82.94;101156.28;10374541;28;20100;-75
2023/10/13 04:15:14;;;;;;;9.68;3.00;;;;;;;0.19;82.75;101117.09;10373451;28;20034;-74
2023/10/13 04:25:28;;;;;;;7.47;3.05;;;;;;;0.75;82.59;101126.22;10373517;28;20042;-86
2023/10/13 04:30:38;;;;;;;8.15;2.90;;;;;;;1.23;82.58;101179.31;10351391;28;20041;-73
2023/10/13 04:35:47;;;;;;;8.82;2.65;;;;;;;1.24;82.40;101170.53;10372369;28;20046;-74
2023/10/13 04:40:59;;;;;;;5.20;2.35;;;;;;;1.37;81.85;101154.94;10373045;28;20042;-84
2023/10/13 04:46:14;;;;;;;9.18;2.80;;;;;;;1.75;82.31;101178.91;10370214;28;20042;-83
2023/10/13 04:51:34;;;;;;;9.93;3.22;;;;;;;1.98;82.14;101174.06;10372572;28;20088;-83
2023/10/13 05:44:37;;;;;;;7.28;3.42;;;;;;;4.30;80.23;101089.63;10371576;28;20058;-83
2023/10/13 05:49:49;;;;;;;6.97;4.25;;;;;;;4.43;79.80;101096.66;10370952;28;20037;-83
2023/10/13 06:32:11;;;;;;;5.70;3.58;;;;;;;7.76;72.89;101090.69;10377113;28;20065;-83
2023/10/13 06:37:31;;;;;;;11.48;3.70;;;;;;;8.22;71.43;101097.28;10377863;28;20076;-84
2023/10/13 06:42:34;;;;;;;10.38;3.33;;;;;;;8.67;70.66;101096.88;10378171;28;20156;-82
2023/10/13 06:47:42;;;;;;;11.05;3.33;;;;;;;8.88;70.09;101083.53;10377441;28;20440;-82
2023/10/13 06:52:44;;;;;;;7.35;3.08;;;;;;;9.10;70.19;101082.41;10376535;28;20069;-83
2023/10/13 06:57:46;;;;;;;10.68;4.03;;;;;;;9.45;69.40;101065.03;10375991;28;20049;-83
2023/10/13 07:02:47;;;;;;;9.93;3.63;;;;;;;9.27;68.80;100993.38;10375796;28;20418;-84
2023/10/13 07:07:56;;;;;;;10.07;3.50;;;;;;;9.89;68.32;101059.19;10376149;28;20041;-81
2023/10/13 07:13:00;;;;;;;9.35;3.58;;;;;;;10.32;67.32;101060.38;10376454;28;20045;-83
2023/10/13 07:18:05;;;;;;;10.27;3.40;;;;;;;10.55;66.53;101060.81;10375877;28;20038;-84
2023/10/13 07:23:06;;;;;;;12.52;4.38;;;;;;;10.73;66.48;101051.03;10375112;28;20069;-85
2023/10/13 07:28:08;;;;;;;8.80;4.03;;;;;;;10.49;65.86;100979.91;10373825;28;20042;-84
2023/10/13 07:33:13;;;;;;;5.35;3.78;;;;;;;10.79;65.63;100983.16;10375878;28;20042;-85
2023/10/13 07:38:13;;;;;;;7.88;3.70;;;;;;;11.24;64.64;101032.66;10374172;28;20137;-83
2023/10/13 07:43:20;;;;;;;9.30;3.80;;;;;;;10.77;64.90;100953.22;10334357;28;20517;-85
2023/10/13 07:48:21;;;;;;;7.68;3.60;;;;;;;11.51;64.60;101018.38;10334253;28;20038;-85
2023/10/13 07:53:28;;;;;;;5.70;3.72;;;;;;;11.74;63.45;100947.66;10333935;28;20242;-85
2023/10/13 07:58:31;;;;;;;6.50;3.75;;;;;;;12.34;62.22;101011.44;10333795;28;20042;-86
2023/10/13 08:03:45;;;;;;;7.70;4.10;;;;;;;12.47;60.92;101015.44;10332775;28;20137;-85
2023/10/13 08:08:50;;;;;;;6.85;4.20;;;;;;;12.16;60.98;100948.63;10333239;28;20053;-84
2023/10/13 08:13:55;;;;;;;11.27;3.80;;;;;;;12.65;60.33;100999.31;10333289;28;20038;-84
2023/10/13 08:18:56;;;;;;;6.05;3.67;;;;;;;12.79;59.42;100994.16;10332555;28;20073;-84
2023/10/13 08:23:58;;;;;;;9.95;4.40;;;;;;;12.84;59.41;100980.34;10332875;28;20466;-86
2023/10/13 08:34:23;;;;;;;8.75;3.90;;;;;;;13.38;57.98;100977.13;10332657;28;20034;-85
2023/10/13 08:44:52;;;;;;;8.02;5.00;;;;;;;13.98;55.72;100947.19;10334172;28;20494;-85
2023/10/13 08:50:10;;;;;;;7.22;3.85;;;;;;;14.10;55.33;100948.44;10333117;28;20030;-86
2023/10/13 09:00:55;;;;;;;10.00;4.28;;;;;;;14.19;53.48;100878.91;10331963;28;20054;-87
2023/10/13 09:06:06;;;;;;;14.60;4.15;;;;;;;14.63;53.71;100865.72;10331740;28;20042;-87
2023/10/13 09:11:12;;;;;;;10.10;3.42;;;;;;;15.08;51.91;100896.03;10346816;28;20434;-86
2023/10/13 09:16:49;;;;;;;6.85;3.55;;;;;;;15.16;50.35;100858.44;10331825;28;20548;-83
2023/10/13 09:26:42;;;;;;;9.25;3.75;;;;;;;15.60;49.63;100891.56;10331186;28;20072;-84
2023/10/13 09:31:44;;;;;;;12.95;4.00;;;;;;;15.48;48.68;100864.41;10335664;28;20077;-87
2023/10/13 09:36:47;;;;;;;9.23;4.03;;;;;;;15.81;47.46;100878.22;10338616;28;20126;-86
2023/10/13 09:41:53;;;;;;;12.98;4.35;;;;;;;16.05;47.20;100863.63;10339692;28;20049;-87
2023/10/13 09:46:59;;;;;;;11.05;3.75;;;;;;;16.19;46.24;100860.06;10338862;28;20038;-84
2023/10/13 09:52:07;;;;;;;8.45;3.83;;;;;;;16.44;44.00;100870.38;10339416;28;20062;-84
2023/10/13 09:57:18;;;;;;;12.00;3.42;;;;;;;16.35;43.20;100840.19;10339355;28;20050;-83
2023/10/13 10:02:25;;;;;;;7.03;2.97;;;;;;;16.59;44.03;100846.16;10338546;28;20049;-83
2023/10/13 10:07:32;;;;;;;8.40;3.10;;;;;;;16.77;43.16;100851.88;10338069;28;20038;-83
2023/10/13 10:13:01;;;;;;;8.98;3.55;;;;;;;16.86;41.53;100848.03;10337970;28;20046;-83
2023/10/13 10:18:04;;;;;;;8.40;3.05;;;;;;;17.00;41.95;100845.44;10337736;28;20042;-84
2023/10/13 10:23:09;;;;;;;7.43;2.95;;;;;;;16.85;42.21;100816.03;10337328;28;20145;-84
2023/10/13 10:28:15;;;;;;;9.55;2.30;;;;;;;17.14;41.94;100820.31;10337417;28;20038;-83
2023/10/13 10:33:18;;;;;;;6.88;2.30;;;;;;;17.41;41.57;100823.94;10337088;28;20047;-83
2023/10/13 10:43:46;;;;;;;9.95;2.20;;;;;;;17.52;40.60;100804.53;10336345;28;20046;-84
2023/10/13 10:48:56;;;;;;;22.02;3.17;;;;;;;17.60;41.46;100821.53;10337340;28;20070;-84
2023/10/13 10:54:10;;;;;;;12.30;2.58;;;;;;;17.65;40.83;100819.88;10351648;28;20054;-84
2023/10/13 10:59:24;;;;;;;4.72;1.92;;;;;;;17.48;41.15;100762.19;10335972;28;20399;-84
2023/10/13 11:04:33;;;;;;;7.10;1.90;;;;;;;17.54;40.83;100766.75;10335663;28;20153;-85
2023/10/13 11:09:45;;;;;;;13.25;2.42;;;;;;;17.88;40.60;100813.34;10335270;28;20122;-85
2023/10/13 11:14:50;;;;;;;4.65;1.38;;;;;;;17.86;40.47;100799.25;10350564;28;20391;-84
2023/10/13 11:19:51;;;;;;;10.52;1.92;;;;;;;17.87;40.53;100792.88;10335950;28;20494;-84
2023/10/13 11:24:53;;;;;;;8.45;1.58;;;;;;;17.83;40.87;100778.16;10335087;28;20053;-84
2023/10/13 11:29:56;;;;;;;9.68;1.98;;;;;;;18.08;40.56;100792.69;10335363;28;20030;-82
2023/10/13 11:34:58;;;;;;;11.48;1.95;;;;;;;18.05;39.97;100786.88;10335266;28;20038;-84
2023/10/13 11:39:58;;;;;;;14.20;2.10;;;;;;;18.16;40.24;100781.72;10334498;28;20034;-84
2023/10/13 11:45:28;;;;;;;5.57;1.80;;;;;;;17.88;40.09;100744.28;10334332;28;20058;-84
2023/10/13 11:50:32;;;;;;;14.20;2.20;;;;;;;18.09;40.07;100772.81;10333429;28;20034;-84
2023/10/13 11:55:33;;;;;;;4.60;1.70;;;;;;;18.27;40.11;100788.31;10333235;28;20201;-84
2023/10/13 12:01:01;;;;;;;7.63;1.98;;;;;;;18.11;40.47;100770.75;10333237;28;20094;-85
2023/10/13 12:11:30;;;;;;;36.22;12.57;;;;;;;17.67;40.42;100691.53;10333779;28;20050;-84
2023/10/13 12:16:34;;;;;;;11.07;4.53;;;;;;;17.90;39.87;100719.91;10333227;28;20127;-83
2023/10/13 12:21:37;;;;;;;;;;;;;;;18.41;38.40;100781.91;10338427;28;20074;-83
2023/10/13 12:26:41;;;;;;;13.45;5.30;;;;;;;18.00;38.80;100717.59;10351083;28;20020;-83
2023/10/13 12:31:50;;;;;;;24.83;8.27;;;;;;;17.85;38.72;100709.75;10343738;28;20069;-85
2023/10/13 12:37:05;;;;;;;40.17;7.85;;;;;;;18.38;38.19;100776.13;10358211;28;20073;-87
2023/10/13 12:53:05;;;;;;;9.55;2.60;;;;;;;18.00;38.08;100766.81;10363559;28;20041;-85
2023/10/13 12:58:05;;;;;;;50.15;21.42;;;;;;;17.83;37.81;100757.53;10349262;28;20531;-86
2023/10/13 13:03:11;;;;;;;28.13;8.68;;;;;;;17.99;37.85;100789.38;10365327;28;20421;-87
2023/10/13 13:08:19;;;;;;;51.47;20.27;;;;;;;17.84;38.23;100780.66;10369526;28;20046;-84
2023/10/13 13:13:24;;;;;;;13.48;4.30;;;;;;;17.86;38.25;100792.06;10347272;28;20100;-85
2023/10/13 13:18:25;;;;;;;20.40;5.82;;;;;;;17.78;38.55;100797.63;10340905;28;20590;-86
2023/10/13 13:23:26;;;;;;;26.52;7.85;;;;;;;17.65;38.67;100787.66;10335406;28;20394;-84
2023/10/13 13:28:28;;;;;;;34.67;12.00;;;;;;;17.42;38.86;100776.44;10338581;28;20042;-85
2023/10/13 13:33:33;;;;;;;36.38;13.65;;;;;;;17.27;39.21;100773.91;10345097;28;20048;-86
2023/10/13 13:38:33;;;;;;;24.30;7.10;;;;;;;17.11;39.38;100777.75;10371373;28;20038;-87
2023/10/13 13:43:37;;;;;;;53.60;15.80;;;;;;;17.07;39.75;100788.06;10371485;28;20046;-84
2023/10/13 13:48:40;;;;;;;40.83;15.57;;;;;;;16.80;40.60;100783.59;10332055;28;20062;-87
2023/10/13 13:53:45;;;;;;;48.25;12.07;;;;;;;16.62;40.88;100797.47;10340592;28;20498;-88
2023/10/13 13:58:53;;;;;;;56.75;12.10;;;;;;;16.12;42.28;100813.63;10331001;28;20046;-88
2023/10/13 14:03:56;;;;;;;50.65;14.68;;;;;;;15.54;43.70;100788.69;10330932;28;20077;-88
2023/10/13 14:09:32;;;;;;;34.70;11.23;;;;;;;15.08;45.07;100786.31;10330957;28;20043;-87
2023/10/13 14:14:33;;;;;;;51.97;13.35;;;;;;;14.34;46.85;100744.31;10347524;28;20042;-87
2023/10/13 14:19:40;;;;;;;55.40;11.10;;;;;;;14.16;48.63;100802.63;10362847;28;20095;-87
2023/10/13 14:24:47;;;;;;;92.85;11.73;;;;;;;13.77;49.74;100816.94;10374078;28;20387;-82
2023/10/13 14:29:52;;;;;;;70.32;9.32;;;;;;;13.32;51.83;100825.72;10359242;28;20057;-86
2023/10/13 14:34:54;;;;;;;24.58;5.93;;;;;;;12.79;52.98;100812.84;10316709;28;20031;-86
2023/10/13 14:39:59;;;;;;;125.97;12.48;;;;;;;12.46;54.71;100821.94;10296588;28;20124;-84
2023/10/13 14:45:00;;;;;;;80.82;9.98;;;;;;;11.98;56.03;100805.81;10334314;28;20551;-86
2023/10/13 14:50:03;;;;;;;30.00;5.72;;;;;;;11.74;57.33;100832.38;10350108;28;20042;-86
2023/10/13 14:55:07;;;;;;;38.05;5.60;;;;;;;11.55;58.34;100857.44;10356319;28;20058;-86
2023/10/13 15:00:13;;;;;;;32.43;5.30;;;;;;;11.30;59.70;100849.34;10377623;28;20049;-86
2023/10/13 15:05:16;;;;;;;33.50;5.28;;;;;;;10.92;60.55;100838.22;10376566;28;20042;-85
2023/10/13 15:10:17;;;;;;;41.65;4.78;;;;;;;10.70;61.55;100867.97;10371804;28;20402;-86
2023/10/13 15:15:19;;;;;;;45.53;6.30;;;;;;;10.33;62.52;100877.00;10335594;28;20047;-86
2023/10/13 15:20:19;;;;;;;44.55;6.18;;;;;;;10.10;63.32;100876.59;10335428;28;20041;-86
2023/10/13 15:25:29;;;;;;;58.10;9.40;;;;;;;10.03;64.23;100900.28;10347905;28;20136;-85
2023/10/13 15:30:52;;;;;;;46.30;9.82;;;;;;;9.51;65.02;100836.41;10362133;28;20080;-85
2023/10/13 15:35:53;;;;;;;43.07;10.00;;;;;;;9.71;65.17;100903.41;10329916;28;20035;-85
2023/10/13 15:40:54;;;;;;;46.05;11.23;;;;;;;8.90;66.14;100799.84;10322964;28;20120;-84
2023/10/13 15:45:57;;;;;;;33.03;11.35;;;;;;;9.00;66.54;100826.31;10303990;28;20106;-83
2023/10/13 15:50:58;;;;;;;36.67;11.25;;;;;;;9.28;67.22;100899.59;10325046;28;20038;-82
2023/10/13 15:55:58;;;;;;;28.48;10.88;;;;;;;9.10;67.54;100904.81;10333355;28;20057;-83
2023/10/13 16:00:59;;;;;;;39.92;9.68;;;;;;;8.76;67.91;100899.16;10334102;28;20038;-80
2023/10/13 16:06:09;;;;;;;20.23;7.45;;;;;;;8.71;70.09;100900.59;10323100;28;20034;-80
2023/10/13 16:11:13;;;;;;;20.48;6.13;;;;;;;8.58;69.77;100904.34;10332048;28;20050;-81
2023/10/13 16:16:15;;;;;;;16.17;6.03;;;;;;;8.51;69.77;100918.31;10332790;28;20049;-79
2023/10/13 16:21:17;;;;;;;13.18;5.78;;;;;;;7.52;69.99;100783.47;10299506;28;20192;-78
2023/10/13 16:26:21;;;;;;;15.52;6.07;;;;;;;8.20;70.35;100916.63;10324108;28;20065;-82
2023/10/13 16:31:22;;;;;;;24.40;7.20;;;;;;;7.70;70.75;100850.56;10322873;28;20403;-73
2023/10/13 16:36:23;;;;;;;22.52;6.70;;;;;;;7.66;71.72;100870.31;10325134;28;20042;-74
2023/10/13 16:41:26;;;;;;;24.02;6.75;;;;;;;7.49;72.31;100869.16;10325807;28;20466;-77
2023/10/13 16:46:27;;;;;;;23.42;7.70;;;;;;;7.37;73.29;100853.56;10323105;28;20041;-76
2023/10/13 16:51:29;;;;;;;44.55;8.35;;;;;;;7.63;73.19;100920.84;10328115;28;20061;-76
2023/10/13 16:56:29;;;;;;;22.67;7.22;;;;;;;7.13;73.82;100854.72;10323361;28;20057;-76
2023/10/13 17:01:30;;;;;;;17.40;6.50;;;;;;;7.48;74.60;100927.47;10328219;28;20042;-76
2023/10/13 17:06:31;;;;;;;26.52;7.80;;;;;;;7.29;75.20;100910.53;10364458;28;20041;-76
2023/10/13 17:11:32;;;;;;;24.02;7.22;;;;;;;6.96;75.22;100890.50;10317964;28;20042;-75
2023/10/13 17:16:33;;;;;;;21.67;7.13;;;;;;;7.01;75.50;100908.63;10327741;28;20042;-78
2023/10/13 17:21:33;;;;;;;27.83;7.80;;;;;;;7.09;76.24;100945.78;10328091;28;20038;-76
2023/10/13 17:26:34;;;;;;;31.27;7.72;;;;;;;6.97;76.22;100931.81;10326357;28;20060;-78
2023/10/13 17:31:36;;;;;;;26.38;12.73;;;;;;;6.77;76.92;100911.53;10328251;28;20070;-87
2023/10/13 17:36:38;;;;;;;54.50;36.40;;;;;;;6.77;77.55;100945.88;10327368;28;20046;-77
2023/10/13 17:41:38;;;;;;;68.15;34.70;;;;;;;6.59;77.61;100949.06;10314593;28;20451;-80
2023/10/13 17:46:40;;;;;;;61.30;34.83;;;;;;;6.45;77.75;100937.97;10316444;28;20134;-81
2023/10/13 17:51:43;;;;;;;52.30;29.77;;;;;;;6.26;77.83;100918.38;10316656;28;20061;-79
2023/10/13 17:56:44;;;;;;;63.78;22.65;;;;;;;5.91;78.33;100893.03;10320281;28;20045;-81
2023/10/13 18:01:48;;;;;;;41.55;19.25;;;;;;;6.19;78.21;100940.94;10316050;28;20125;-80
2023/10/13 18:06:52;;;;;;;30.42;16.17;;;;;;;6.09;79.11;100954.03;10316888;28;20049;-78
2023/10/13 18:11:54;;;;;;;36.60;16.13;;;;;;;6.00;79.11;100946.03;10319409;28;20034;-79
2023/10/13 18:16:55;;;;;;;61.63;17.30;;;;;;;5.89;79.37;100941.59;10317919;28;20372;-76
2023/10/13 18:21:58;;;;;;;35.83;16.70;;;;;;;5.77;80.10;100946.03;10322492;28;20128;-77
2023/10/13 18:27:00;;;;;;;50.13;16.58;;;;;;;5.69;80.58;100935.28;10323803;28;20042;-76
2023/10/13 18:32:01;;;;;;;60.58;16.77;;;;;;;5.54;80.40;100924.16;10320923;28;20494;-76
2023/10/13 18:37:02;;;;;;;50.20;14.90;;;;;;;5.55;80.77;100938.16;10317249;28;20035;-76
2023/10/13 18:42:05;;;;;;;31.30;13.80;;;;;;;5.48;80.64;100920.22;10338430;28;20050;-77
2023/10/13 18:47:08;;;;;;;62.53;19.30;;;;;;;5.54;80.52;100937.34;10345889;28;20524;-77
2023/10/13 18:52:10;;;;;;;46.38;18.92;;;;;;;5.25;80.50;100906.19;10336504;28;20513;-76
2023/10/13 18:57:13;;;;;;;55.38;13.07;;;;;;;4.96;80.71;100855.78;10336732;28;20516;-76
2023/10/13 19:02:14;;;;;;;28.00;11.30;;;;;;;5.43;80.82;100922.34;10335926;28;20038;-77
2023/10/13 19:07:15;;;;;;;32.80;11.73;;;;;;;5.60;81.11;100944.75;10334727;28;20050;-77
2023/10/13 19:12:22;;;;;;;27.33;12.57;;;;;;;5.57;81.10;100952.06;10335204;28;20077;-76
2023/10/13 19:17:24;;;;;;;26.73;15.93;;;;;;;5.35;81.63;100935.28;10332811;28;20112;-77
2023/10/13 19:22:25;;;;;;;38.30;16.58;;;;;;;5.35;82.17;100950.25;10334398;28;20130;-77
2023/10/13 19:27:26;;;;;;;39.35;15.60;;;;;;;5.04;81.66;100928.94;10334509;28;20080;-77
2023/10/13 19:32:27;;;;;;;26.05;12.25;;;;;;;4.96;81.71;100934.78;10322785;28;20047;-76
2023/10/13 19:37:28;;;;;;;23.40;10.20;;;;;;;4.84;81.47;100927.81;10351152;28;20458;-77
2023/10/13 19:42:29;;;;;;;25.73;9.07;;;;;;;4.69;81.72;100921.91;10375111;28;20066;-77
2023/10/13 19:47:30;;;;;;;21.13;6.97;;;;;;;4.66;82.44;100945.00;10373135;28;20510;-77
2023/10/13 19:52:32;;;;;;;36.67;8.05;;;;;;;4.72;82.91;100940.09;10333611;28;20084;-77
2023/10/13 19:57:34;;;;;;;31.27;10.85;;;;;;;4.71;83.00;100953.41;10333220;28;20832;-77
2023/10/13 20:02:38;;;;;;;27.65;12.45;;;;;;;4.61;82.78;100952.38;10332846;28;20038;-77
2023/10/13 20:07:41;;;;;;;18.87;10.07;;;;;;;4.47;83.49;100932.38;10333145;28;20042;-77
2023/10/13 20:12:44;;;;;;;25.27;9.60;;;;;;;4.20;83.07;100901.09;10332861;28;20391;-77
2023/10/13 20:17:45;;;;;;;17.45;8.73;;;;;;;3.74;83.69;100836.94;10331964;28;20042;-77
2023/10/13 20:22:47;;;;;;;27.45;9.55;;;;;;;4.24;84.67;100955.13;10332317;28;20133;-77
2023/10/13 20:27:48;;;;;;;20.58;9.82;;;;;;;4.35;84.36;100973.59;10333341;28;20490;-77
2023/10/13 20:32:48;;;;;;;33.15;9.38;;;;;;;4.37;84.52;100979.59;10331494;28;20054;-78
2023/10/13 20:37:51;;;;;;;21.38;11.00;;;;;;;4.19;84.16;100965.13;10331863;28;20127;-77
2023/10/13 20:42:59;;;;;;;22.17;9.63;;;;;;;4.02;84.47;100980.34;10331870;28;20050;-77
2023/10/13 20:48:00;;;;;;;36.35;11.10;;;;;;;3.90;83.97;100983.84;10331174;28;20042;-78
2023/10/13 20:53:02;;;;;;;31.00;9.68;;;;;;;3.75;84.50;100964.75;10332020;28;20410;-76
2023/10/13 20:58:03;;;;;;;44.42;9.50;;;;;;;3.62;84.89;100951.66;10332746;28;20049;-77
2023/10/13 21:03:07;;;;;;;38.42;9.32;;;;;;;3.15;84.72;100905.06;10330838;28;20049;-77
2023/10/13 21:08:07;;;;;;;16.48;7.32;;;;;;;3.44;84.26;100971.34;10329128;28;20045;-77
2023/10/13 21:13:11;;;;;;;18.77;7.05;;;;;;;3.42;85.27;100973.22;10331045;28;20490;-77
2023/10/13 21:18:12;;;;;;;45.13;8.33;;;;;;;3.42;85.98;100967.97;10330379;28;20040;-77
2023/10/13 21:23:12;;;;;;;26.25;7.40;;;;;;;3.53;85.94;100980.34;10331059;28;20116;-77
2023/10/13 21:28:13;;;;;;;36.33;7.90;;;;;;;3.51;85.39;100979.63;10337079;28;20104;-76
2023/10/13 21:33:14;;;;;;;18.08;6.00;;;;;;;3.09;85.73;100922.09;10339726;28;20401;-76
2023/10/13 21:38:16;;;;;;;30.88;6.05;;;;;;;3.33;85.33;100984.34;10339368;28;20054;-76
2023/10/13 21:43:16;;;;;;;19.13;5.85;;;;;;;3.14;85.02;100983.00;10339675;28;20129;-76
2023/10/13 21:48:18;;;;;;;12.73;6.03;;;;;;;3.23;85.20;100983.28;10338523;28;20117;-76
2023/10/13 21:53:19;;;;;;;21.73;6.03;;;;;;;3.19;85.72;100983.50;10338683;28;20077;-76
2023/10/13 21:58:22;;;;;;;17.83;5.60;;;;;;;3.11;85.28;100990.22;10318045;28;20050;-76
2023/10/13 22:03:23;;;;;;;16.33;5.65;;;;;;;2.92;84.99;100993.25;10332552;28;20054;-77
2023/10/13 22:08:24;;;;;;;12.35;4.85;;;;;;;2.93;85.55;101003.66;10337719;28;20054;-76
2023/10/13 22:13:25;;;;;;;17.00;5.78;;;;;;;2.91;85.46;101000.28;10337603;28;20449;-77
2023/10/13 22:18:26;;;;;;;13.75;5.70;;;;;;;2.55;85.18;100939.78;10338329;28;20065;-76
2023/10/13 22:23:27;;;;;;;14.73;6.10;;;;;;;3.08;84.96;101016.69;10337219;28;20073;-77
2023/10/13 22:28:28;;;;;;;13.15;5.90;;;;;;;2.65;85.12;100946.91;10304735;28;20074;-76
2023/10/13 22:33:29;;;;;;;16.80;6.60;;;;;;;2.79;85.08;100989.78;10331394;28;20129;-76
2023/10/13 22:38:29;;;;;;;17.75;6.80;;;;;;;2.89;85.18;101006.56;10326779;28;20038;-76
2023/10/13 22:43:30;;;;;;;17.63;6.55;;;;;;;2.88;84.64;101021.50;10335997;28;20050;-75
2023/10/13 22:48:34;;;;;;;21.48;7.40;;;;;;;2.81;85.17;101021.97;10352004;28;20042;-76
2023/10/13 22:53:35;;;;;;;23.65;7.50;;;;;;;2.71;84.89;101017.34;10351718;28;20573;-76
2023/10/13 22:58:37;;;;;;;34.42;7.40;;;;;;;2.23;85.43;100961.91;10350792;28;20188;-76
2023/10/13 23:03:41;;;;;;;20.27;7.18;;;;;;;2.10;85.38;100961.03;10350778;28;20502;-76
2023/10/13 23:08:43;;;;;;;18.50;6.10;;;;;;;1.71;85.38;100912.84;10336765;28;20050;-76
2023/10/13 23:13:45;;;;;;;31.55;7.20;;;;;;;2.32;85.50;101017.31;10350219;28;20502;-76
2023/10/13 23:18:48;;;;;;;33.28;9.30;;;;;;;2.23;85.78;101014.34;10335090;28;20064;-76
2023/10/13 23:23:49;;;;;;;23.88;9.75;;;;;;;2.19;85.68;100991.06;10334777;28;20049;-76
2023/10/13 23:28:53;;;;;;;32.63;8.55;;;;;;;2.25;85.36;101022.97;10335389;28;20042;-76
2023/10/13 23:33:53;;;;;;;;;;;;;;;2.44;87.11;101025.22;10335899;28;20532;-76
2023/10/13 23:39:08;;;;;;;21.38;8.27;;;;;;;2.23;85.02;101024.00;10334202;28;19920;-76
2023/10/13 23:44:17;;;;;;;29.17;9.05;;;;;;;2.13;85.13;101028.97;10334366;28;20043;-77
2023/10/13 23:49:18;;;;;;;30.52;9.38;;;;;;;2.02;84.72;101020.94;10332842;28;20050;-76
2023/10/13 23:54:20;;;;;;;27.90;9.30;;;;;;;2.08;85.70;101033.66;10334003;28;20054;-76
2023/10/13 23:59:26;;;;;;;26.75;9.25;;;;;;;1.96;85.30;101026.56;10333289;28;20050;-76
